createdAt,value
2022-11-17T00:02:18.262Z,92.48
2022-11-17T00:04:45.712Z,92.76
2022-11-17T00:07:12.817Z,93.22
2022-11-17T00:09:39.833Z,92.67
2022-11-17T00:12:29.895Z,91.39
2022-11-17T00:14:59.710Z,91.43
2022-11-17T00:17:27.133Z,91.96
2022-11-17T00:20:12.622Z,91.26
2022-11-17T00:22:39.605Z,91.84
2022-11-17T00:25:06.721Z,92.22
2022-11-17T00:27:33.834Z,92.45
2022-11-17T00:30:00.766Z,92.10
2022-11-17T00:32:46.176Z,92.69
2022-11-17T00:35:13.156Z,93.13
2022-11-17T00:37:59.921Z,93.17
2022-11-17T00:40:27.084Z,92.72
2022-11-17T00:42:54.103Z,93.91
2022-11-17T00:45:21.057Z,92.66
2022-11-17T00:47:48.582Z,92.84
2022-11-17T00:50:15.741Z,93.22
2022-11-17T00:52:42.742Z,92.74
2022-11-17T00:55:09.825Z,92.47
2022-11-17T00:57:36.800Z,92.69
2022-11-17T01:00:04.593Z,92.14
2022-11-17T01:02:31.586Z,92.89
2022-11-17T01:04:58.517Z,93.05
2022-11-17T01:07:26.284Z,92.86
2022-11-17T01:09:53.349Z,92.71
2022-11-17T01:12:20.360Z,92.83
2022-11-17T01:14:47.539Z,92.99
2022-11-17T01:17:14.561Z,92.24
2022-11-17T01:19:41.614Z,92.36
2022-11-17T01:22:08.685Z,92.60
2022-11-17T01:24:35.723Z,93.13
2022-11-17T01:27:02.738Z,92.33
2022-11-17T01:29:29.742Z,92.38
2022-11-17T01:31:56.700Z,92.28
2022-11-17T01:34:23.677Z,91.95
2022-11-17T01:37:09.258Z,92.58
2022-11-17T01:39:36.248Z,92.72
2022-11-17T01:42:05.793Z,92.22
2022-11-17T01:45:02.556Z,92.61
2022-11-17T01:47:50.949Z,93.40
2022-11-17T01:50:20.934Z,93.11
2022-11-17T01:52:51.395Z,92.70
2022-11-17T01:55:20.090Z,92.60
2022-11-17T01:57:53.381Z,93.44
2022-11-17T02:00:20.489Z,92.61
2022-11-17T02:02:48.460Z,93.05
2022-11-17T02:05:49.881Z,93.62
2022-11-17T02:08:46.968Z,93.59
2022-11-17T02:11:35.819Z,92.80
2022-11-17T02:14:29.096Z,92.93
2022-11-17T02:17:14.450Z,93.50
2022-11-17T02:20:18.332Z,93.09
2022-11-17T02:22:55.916Z,92.43
2022-11-17T02:25:31.331Z,92.07
2022-11-17T02:28:11.171Z,92.30
2022-11-17T02:30:59.388Z,92.50
2022-11-17T02:33:55.030Z,92.38
2022-11-17T02:40:11.149Z,92.47
2022-11-17T02:43:03.635Z,91.99
2022-11-17T02:45:39.943Z,91.96
2022-11-17T02:48:16.452Z,91.37
2022-11-17T02:50:46.712Z,91.28
2022-11-17T02:53:15.319Z,92.35
2022-11-17T02:55:52.139Z,91.94
2022-11-17T02:58:19.362Z,92.26
2022-11-17T03:01:13.811Z,92.15
2022-11-17T03:03:55.810Z,92.67
2022-11-17T03:06:31.766Z,91.63
2022-11-17T03:09:10.484Z,91.71
2022-11-17T03:11:47.752Z,92.39
2022-11-17T03:14:34.805Z,91.67
2022-11-17T03:17:11.541Z,91.60
2022-11-17T03:19:48.212Z,91.47
2022-11-17T03:22:32.149Z,93.07
2022-11-17T03:25:03.471Z,92.70
2022-11-17T03:27:45.820Z,91.72
2022-11-17T03:30:13.775Z,92.72
2022-11-17T03:32:46.828Z,92.61
2022-11-17T03:35:19.066Z,92.80
2022-11-17T03:37:51.342Z,92.62
2022-11-17T03:40:22.475Z,92.08
2022-11-17T03:42:54.253Z,92.68
2022-11-17T03:45:25.991Z,93.27
2022-11-17T03:48:00.670Z,93.08
2022-11-17T03:50:36.471Z,93.29
2022-11-17T03:53:05.329Z,92.94
2022-11-17T03:56:03.103Z,93.18
2022-11-17T03:58:34.580Z,92.56
2022-11-17T04:01:04.833Z,94.16
2022-11-17T04:03:35.461Z,94.14
2022-11-17T04:06:02.644Z,93.97
2022-11-17T04:08:30.995Z,93.78
2022-11-17T04:11:16.853Z,93.10
2022-11-17T04:14:02.383Z,93.44
2022-11-17T04:16:29.257Z,94.06
2022-11-17T04:18:59.018Z,93.49
2022-11-17T04:21:26.488Z,93.33
2022-11-17T04:23:53.351Z,93.68
2022-11-17T04:26:39.583Z,93.14
2022-11-17T04:29:06.443Z,93.50
2022-11-17T04:31:33.471Z,94.03
2022-11-17T04:34:05.288Z,92.95
2022-11-17T04:36:37.426Z,93.21
2022-11-17T04:39:04.756Z,92.91
2022-11-17T04:41:50.413Z,93.56
2022-11-17T04:44:18.123Z,93.55
2022-11-17T04:46:48.678Z,93.59
2022-11-17T04:49:17.293Z,93.53
2022-11-17T04:51:44.784Z,93.23
2022-11-17T04:54:14.689Z,93.68
2022-11-17T04:56:43.088Z,93.89
2022-11-17T04:59:10.039Z,93.45
2022-11-17T05:01:37.500Z,93.49
2022-11-17T05:04:09.844Z,93.46
2022-11-17T05:06:39.963Z,92.52
2022-11-17T05:09:09.571Z,93.12
2022-11-17T05:11:55.290Z,93.42
2022-11-17T05:14:24.186Z,93.22
2022-11-17T05:17:11.371Z,92.68
2022-11-17T05:19:47.470Z,92.05
2022-11-17T05:22:35.731Z,93.01
2022-11-17T05:25:03.162Z,93.22
2022-11-17T05:27:30.238Z,92.85
2022-11-17T05:29:57.123Z,92.71
2022-11-17T05:32:24.028Z,93.01
2022-11-17T05:34:50.954Z,92.41
2022-11-17T05:37:17.955Z,93.15
2022-11-17T05:39:44.838Z,92.19
2022-11-17T05:42:11.816Z,92.42
2022-11-17T05:44:39.635Z,92.39
2022-11-17T05:47:06.551Z,93.37
2022-11-17T05:49:33.430Z,93.16
2022-11-17T05:52:00.394Z,93.40
2022-11-17T05:54:27.302Z,93.02
2022-11-17T05:57:05.205Z,93.21
2022-11-17T05:59:39.823Z,93.39
2022-11-17T06:02:08.914Z,94.12
2022-11-17T06:04:36.069Z,93.60
2022-11-17T06:07:03.085Z,92.78
2022-11-17T06:09:35.633Z,93.34
2022-11-17T06:12:05.818Z,92.62
2022-11-17T06:14:34.480Z,92.23
2022-11-17T06:17:07.451Z,92.66
2022-11-17T06:19:42.012Z,92.73
2022-11-17T06:22:12.727Z,93.52
2022-11-17T06:24:44.432Z,92.85
2022-11-17T06:27:14.178Z,92.76
2022-11-17T06:29:44.690Z,93.12
2022-11-17T06:32:14.557Z,93.43
2022-11-17T06:34:43.686Z,93.07
2022-11-17T06:37:11.615Z,93.11
2022-11-17T06:39:38.536Z,93.93
2022-11-17T06:42:05.501Z,93.56
2022-11-17T06:44:32.394Z,92.22
2022-11-17T06:46:59.394Z,92.08
2022-11-17T06:49:26.243Z,92.82
2022-11-17T06:51:53.118Z,91.93
2022-11-17T06:54:20.012Z,91.57
2022-11-17T06:56:47.379Z,91.84
2022-11-17T06:59:16.203Z,92.80
2022-11-17T07:01:43.724Z,92.40
2022-11-17T07:04:10.712Z,91.86
2022-11-17T07:06:38.152Z,91.11
2022-11-17T07:09:05.866Z,91.62
2022-11-17T07:11:35.538Z,91.14
2022-11-17T07:14:02.443Z,92.15
2022-11-17T07:16:30.967Z,91.14
2022-11-17T07:18:59.464Z,91.60
2022-11-17T07:21:26.866Z,91.94
2022-11-17T07:23:54.037Z,92.10
2022-11-17T07:26:20.941Z,92.27
2022-11-17T07:28:47.814Z,91.12
2022-11-17T07:31:14.854Z,91.15
2022-11-17T07:33:41.760Z,90.94
2022-11-17T07:36:11.286Z,91.45
2022-11-17T07:38:40.199Z,91.80
2022-11-17T07:41:10.002Z,91.70
2022-11-17T07:43:37.281Z,91.92
2022-11-17T07:46:06.146Z,91.55
2022-11-17T07:48:33.660Z,91.19
2022-11-17T07:51:02.063Z,92.38
2022-11-17T07:53:29.424Z,91.77
2022-11-17T07:55:56.436Z,91.48
2022-11-17T07:58:25.736Z,92.00
2022-11-17T08:00:52.746Z,91.22
2022-11-17T08:03:19.769Z,91.61
2022-11-17T08:05:46.765Z,91.68
2022-11-17T08:08:14.314Z,91.06
2022-11-17T08:10:43.249Z,92.63
2022-11-17T08:13:10.170Z,91.62
2022-11-17T08:15:37.168Z,91.61
2022-11-17T08:18:04.321Z,91.27
2022-11-17T08:20:31.268Z,91.05
2022-11-17T08:22:58.800Z,91.44
2022-11-17T08:25:27.209Z,91.65
2022-11-17T08:27:58.130Z,91.76
2022-11-17T08:30:26.335Z,90.92
2022-11-17T08:32:54.702Z,90.84
2022-11-17T08:35:24.394Z,90.96
2022-11-17T08:37:51.921Z,90.48
2022-11-17T08:40:19.551Z,90.38
2022-11-17T08:42:47.146Z,88.46
2022-11-17T08:45:14.511Z,88.22
2022-11-17T08:47:41.484Z,89.67
2022-11-17T08:50:09.192Z,89.22
2022-11-17T08:52:36.097Z,87.67
2022-11-17T08:55:05.867Z,88.57
2022-11-17T08:57:33.468Z,88.11
2022-11-17T09:00:01.329Z,86.77
2022-11-17T09:02:28.715Z,87.57
2022-11-17T09:04:56.059Z,87.76
2022-11-17T09:07:23.161Z,87.60
2022-11-17T09:09:50.260Z,87.52
2022-11-17T09:12:19.171Z,87.87
2022-11-17T09:14:46.207Z,88.13
2022-11-17T09:17:13.153Z,88.21
2022-11-17T09:19:40.088Z,88.73
2022-11-17T09:22:07.149Z,88.10
2022-11-17T09:24:34.064Z,86.51
2022-11-17T09:27:03.255Z,87.77
2022-11-17T09:29:31.202Z,86.26
2022-11-17T09:31:58.219Z,87.98
2022-11-17T09:34:25.836Z,86.88
2022-11-17T09:36:52.752Z,86.33
2022-11-17T09:39:19.702Z,85.94
2022-11-17T09:41:50.057Z,86.77
2022-11-17T09:44:28.503Z,86.20
2022-11-17T09:47:07.322Z,85.81
2022-11-17T09:49:35.051Z,86.76
2022-11-17T09:52:33.233Z,87.12
2022-11-17T09:55:04.444Z,88.26
2022-11-17T09:57:42.374Z,86.40
2022-11-17T10:00:18.830Z,86.61
2022-11-17T10:02:46.820Z,86.06
2022-11-17T10:05:34.906Z,85.78
2022-11-17T10:08:11.542Z,87.14
2022-11-17T10:10:52.298Z,86.60
2022-11-17T10:13:34.245Z,85.77
2022-11-17T10:16:14.452Z,85.56
2022-11-17T10:18:41.531Z,87.44
2022-11-17T10:21:09.568Z,84.77
2022-11-17T10:23:45.770Z,84.15
2022-11-17T10:26:15.897Z,84.83
2022-11-17T10:28:43.512Z,85.71
2022-11-17T10:31:19.638Z,84.68
2022-11-17T10:33:49.922Z,84.74
2022-11-17T10:36:23.708Z,83.58
2022-11-17T10:38:55.939Z,82.55
2022-11-17T10:41:37.813Z,83.58
2022-11-17T10:44:22.545Z,82.46
2022-11-17T10:47:04.387Z,82.72
2022-11-17T10:49:34.958Z,81.76
2022-11-17T10:52:18.932Z,82.18
2022-11-17T10:54:45.906Z,83.75
2022-11-17T10:57:19.443Z,82.21
2022-11-17T10:59:56.507Z,83.19
2022-11-17T11:02:31.259Z,82.55
2022-11-17T11:05:18.829Z,82.90
2022-11-17T11:07:45.946Z,82.59
2022-11-17T11:10:18.571Z,82.81
2022-11-17T11:12:52.563Z,83.31
2022-11-17T11:15:25.541Z,83.53
2022-11-17T11:17:52.716Z,82.36
2022-11-17T11:20:24.744Z,84.06
2022-11-17T11:23:01.603Z,83.67
2022-11-17T11:26:06.993Z,83.94
2022-11-17T11:29:13.139Z,84.42
2022-11-17T11:31:45.832Z,82.51
2022-11-17T11:34:41.579Z,83.67
2022-11-17T11:37:15.988Z,82.19
2022-11-17T11:40:01.724Z,82.85
2022-11-17T11:42:58.097Z,82.85
2022-11-17T11:46:06.265Z,82.62
2022-11-17T11:48:34.438Z,83.15
2022-11-17T11:51:25.476Z,82.56
2022-11-17T11:53:56.118Z,82.49
2022-11-17T11:56:27.487Z,83.88
2022-11-17T11:59:02.872Z,84.22
2022-11-17T12:01:39.378Z,83.29
2022-11-17T12:04:23.900Z,83.68
2022-11-17T12:07:02.289Z,84.46
2022-11-17T12:09:38.009Z,84.12
2022-11-17T12:12:13.676Z,83.82
2022-11-17T12:14:41.478Z,84.03
2022-11-17T12:17:17.559Z,83.83
2022-11-17T12:19:44.532Z,84.87
2022-11-17T12:22:40.862Z,83.39
2022-11-17T12:25:18.738Z,84.06
2022-11-17T12:27:55.097Z,82.53
2022-11-17T12:30:45.300Z,83.06
2022-11-17T12:33:12.263Z,83.32
2022-11-17T12:35:40.332Z,83.46
2022-11-17T12:38:20.219Z,83.53
2022-11-17T12:40:48.352Z,83.90
2022-11-17T12:43:15.333Z,83.67
2022-11-17T12:45:54.917Z,82.97
2022-11-17T12:48:33.845Z,83.94
2022-11-17T12:51:04.798Z,84.35
2022-11-17T12:53:38.880Z,84.25
2022-11-17T12:56:32.492Z,82.89
2022-11-17T12:59:28.659Z,83.04
2022-11-17T13:02:39.942Z,83.76
2022-11-17T13:05:20.882Z,83.86
2022-11-17T13:07:48.193Z,84.20
2022-11-17T13:10:27.160Z,83.64
2022-11-17T13:13:23.900Z,84.79
2022-11-17T13:15:58.335Z,84.22
2022-11-17T13:18:45.925Z,84.50
2022-11-17T13:21:26.132Z,84.76
2022-11-17T13:23:53.976Z,84.26
2022-11-17T13:26:26.997Z,85.26
2022-11-17T13:29:06.155Z,84.49
2022-11-17T13:31:33.865Z,84.59
2022-11-17T13:34:06.501Z,85.87
2022-11-17T13:36:34.440Z,84.02
2022-11-17T13:39:01.367Z,83.19
2022-11-17T13:41:39.927Z,84.12
2022-11-17T13:44:13.864Z,84.22
2022-11-17T13:46:41.092Z,83.81
2022-11-17T13:49:33.576Z,83.11
2022-11-17T13:52:01.584Z,84.15
2022-11-17T13:54:29.196Z,83.00
2022-11-17T13:57:03.966Z,83.64
2022-11-17T13:59:34.296Z,84.36
2022-11-17T14:02:16.604Z,83.29
2022-11-17T14:05:15.277Z,84.28
2022-11-17T14:07:44.098Z,84.13
2022-11-17T14:10:28.167Z,83.64
2022-11-17T14:13:23.069Z,84.66
2022-11-17T14:15:56.868Z,84.15
2022-11-17T14:18:26.844Z,86.05
2022-11-17T14:21:14.891Z,84.54
2022-11-17T14:23:44.208Z,84.56
2022-11-17T14:26:21.477Z,84.32
2022-11-17T14:28:50.205Z,84.63
2022-11-17T14:31:17.392Z,84.59
2022-11-17T14:33:44.507Z,85.15
2022-11-17T14:36:17.069Z,85.10
2022-11-17T14:38:48.150Z,84.84
2022-11-17T14:41:16.792Z,84.44
2022-11-17T14:43:43.748Z,84.38
2022-11-17T14:46:25.833Z,84.10
2022-11-17T14:48:54.232Z,84.73
2022-11-17T14:51:21.693Z,84.78
2022-11-17T14:53:48.990Z,84.44
2022-11-17T14:56:18.371Z,84.43
2022-11-17T14:58:48.584Z,84.16
2022-11-17T15:01:30.278Z,85.23
2022-11-17T15:04:15.716Z,84.09
2022-11-17T15:06:48.117Z,84.87
2022-11-17T15:09:17.901Z,85.10
2022-11-17T15:11:44.776Z,84.87
2022-11-17T15:14:11.819Z,84.64
2022-11-17T15:16:38.713Z,84.64
2022-11-17T15:19:06.954Z,84.60
2022-11-17T15:21:34.205Z,85.14
2022-11-17T15:24:03.573Z,84.24
2022-11-17T15:26:30.581Z,84.69
2022-11-17T15:29:01.260Z,84.56
2022-11-17T15:31:28.460Z,84.66
2022-11-17T15:33:55.350Z,84.98
2022-11-17T15:36:23.591Z,84.48
2022-11-17T15:38:50.838Z,84.79
2022-11-17T15:41:17.839Z,84.67
2022-11-17T15:43:45.750Z,85.04
2022-11-17T15:46:15.469Z,84.64
2022-11-17T15:48:44.023Z,85.20
2022-11-17T15:51:16.758Z,85.95
2022-11-17T15:53:44.990Z,85.70
2022-11-17T15:56:19.868Z,85.30
2022-11-17T15:58:48.459Z,86.33
2022-11-17T16:01:27.203Z,85.37
2022-11-17T16:04:57.644Z,85.39
2022-11-17T16:07:24.805Z,85.04
2022-11-17T16:09:53.029Z,83.85
2022-11-17T16:12:19.921Z,85.12
2022-11-17T16:14:46.848Z,84.97
2022-11-17T16:17:13.709Z,84.94
2022-11-17T16:19:40.664Z,84.64
2022-11-17T16:22:07.553Z,84.56
2022-11-17T16:24:34.469Z,84.82
2022-11-17T16:27:01.460Z,83.70
2022-11-17T16:29:28.327Z,83.38
2022-11-17T16:31:56.330Z,84.12
2022-11-17T16:34:23.292Z,83.65
2022-11-17T16:36:50.192Z,84.46
2022-11-17T16:39:17.932Z,84.32
2022-11-17T16:41:46.087Z,84.85
2022-11-17T16:44:16.164Z,84.80
2022-11-17T16:46:45.240Z,84.18
2022-11-17T16:49:14.907Z,84.10
2022-11-17T16:51:47.666Z,85.19
2022-11-17T16:54:16.063Z,84.17
2022-11-17T16:56:43.565Z,84.39
2022-11-17T16:59:11.607Z,84.72
2022-11-17T17:01:38.898Z,85.01
2022-11-17T17:04:08.816Z,84.35
2022-11-17T17:06:38.825Z,84.51
2022-11-17T17:09:07.923Z,84.56
2022-11-17T17:11:37.555Z,83.63
2022-11-17T17:14:08.478Z,83.72
2022-11-17T17:16:37.026Z,84.51
2022-11-17T17:19:06.851Z,84.37
2022-11-17T17:21:35.258Z,84.46
2022-11-17T17:24:02.468Z,83.96
2022-11-17T17:26:35.904Z,85.03
2022-11-17T17:29:04.779Z,84.85
2022-11-17T17:31:40.225Z,84.18
2022-11-17T17:34:07.850Z,83.76
2022-11-17T17:36:36.733Z,83.44
2022-11-17T17:39:04.544Z,83.16
2022-11-17T17:41:34.484Z,84.04
2022-11-17T17:44:04.315Z,83.08
2022-11-17T17:46:34.773Z,83.22
2022-11-17T17:49:02.590Z,83.40
2022-11-17T17:51:30.386Z,83.48
2022-11-17T17:54:01.139Z,83.64
2022-11-17T17:56:28.646Z,83.40
2022-11-17T17:58:56.052Z,84.25
2022-11-17T18:01:25.411Z,83.07
2022-11-17T18:03:54.500Z,83.35
2022-11-17T18:06:22.807Z,84.24
2022-11-17T18:08:50.094Z,83.11
2022-11-17T18:11:19.628Z,83.29
2022-11-17T18:13:49.169Z,83.78
2022-11-17T18:16:24.049Z,84.01
2022-11-17T18:18:58.486Z,82.75
2022-11-17T18:21:26.117Z,82.81
2022-11-17T18:23:54.258Z,83.80
2022-11-17T18:26:26.679Z,83.45
2022-11-17T18:28:58.440Z,82.49
2022-11-17T18:31:28.092Z,82.98
2022-11-17T18:33:56.954Z,83.24
2022-11-17T18:36:25.226Z,83.36
2022-11-17T18:38:53.007Z,83.70
2022-11-17T18:41:21.562Z,83.28
2022-11-17T18:43:49.174Z,83.54
2022-11-17T18:46:18.480Z,83.68
2022-11-17T18:48:47.716Z,83.42
2022-11-17T18:51:19.570Z,83.93
2022-11-17T18:53:47.526Z,84.13
2022-11-17T18:56:16.518Z,84.34
2022-11-17T18:58:44.233Z,84.83
2022-11-17T19:01:22.842Z,83.90
2022-11-17T19:03:52.686Z,84.41
2022-11-17T19:06:21.476Z,84.33
2022-11-17T19:08:49.016Z,83.16
2022-11-17T19:11:17.497Z,84.04
2022-11-17T19:13:45.788Z,83.86
2022-11-17T19:16:14.294Z,84.41
2022-11-17T19:18:42.178Z,84.15
2022-11-17T19:21:14.856Z,83.73
2022-11-17T19:23:48.033Z,83.79
2022-11-17T19:26:23.350Z,83.49
2022-11-17T19:28:50.470Z,84.04
2022-11-17T19:31:19.770Z,83.89
2022-11-17T19:33:48.559Z,84.50
2022-11-17T19:36:18.785Z,84.02
2022-11-17T19:38:51.680Z,84.18
2022-11-17T19:41:24.484Z,83.52
2022-11-17T19:43:59.475Z,83.84
2022-11-17T19:46:28.409Z,84.67
2022-11-17T19:48:57.017Z,84.54
2022-11-17T19:51:29.633Z,84.91
2022-11-17T19:54:02.523Z,84.38
2022-11-17T19:56:30.299Z,83.53
2022-11-17T19:58:57.552Z,84.51
2022-11-17T20:01:29.515Z,84.03
2022-11-17T20:03:59.205Z,83.54
2022-11-17T20:06:28.722Z,84.14
2022-11-17T20:08:57.718Z,83.86
2022-11-17T20:11:28.803Z,83.99
2022-11-17T20:13:56.486Z,83.77
2022-11-17T20:16:25.720Z,83.00
2022-11-17T20:18:54.717Z,83.56
2022-11-17T20:21:22.205Z,82.98
2022-11-17T20:23:49.248Z,84.14
2022-11-17T20:26:24.443Z,83.72
2022-11-17T20:28:52.514Z,83.69
2022-11-17T20:31:24.541Z,83.61
2022-11-17T20:33:56.516Z,83.98
2022-11-17T20:36:23.792Z,83.69
2022-11-17T20:38:52.237Z,83.13
2022-11-17T20:41:21.179Z,83.68
2022-11-17T20:43:49.674Z,82.83
2022-11-17T20:46:17.276Z,83.14
2022-11-17T20:48:44.611Z,82.89
2022-11-17T20:51:17.115Z,83.26
2022-11-17T20:53:44.660Z,84.11
2022-11-17T20:56:13.388Z,83.63
2022-11-17T20:58:40.710Z,82.83
2022-11-17T21:01:19.543Z,83.39
2022-11-17T21:03:46.565Z,83.06
2022-11-17T21:06:14.404Z,83.07
2022-11-17T21:08:42.384Z,83.13
2022-11-17T21:11:32.579Z,83.69
2022-11-17T21:13:59.802Z,83.99
2022-11-17T21:16:26.722Z,82.90
2022-11-17T21:18:53.674Z,83.07
2022-11-17T21:21:20.680Z,83.29
2022-11-17T21:23:47.587Z,83.54
2022-11-17T21:26:19.030Z,83.77
2022-11-17T21:28:47.644Z,83.10
2022-11-17T21:31:17.080Z,83.35
2022-11-17T21:33:45.376Z,82.99
2022-11-17T21:36:17.139Z,83.13
2022-11-17T21:38:45.434Z,83.85
2022-11-17T21:41:27.044Z,83.80
2022-11-17T21:43:55.484Z,84.40
2022-11-17T21:46:24.619Z,84.16
2022-11-17T21:48:52.770Z,83.55
2022-11-17T21:51:27.171Z,83.64
2022-11-17T21:53:56.233Z,84.60
2022-11-17T21:56:26.655Z,83.57
2022-11-17T21:59:01.361Z,82.19
2022-11-17T22:01:29.493Z,83.65
2022-11-17T22:03:56.549Z,82.86
2022-11-17T22:06:25.290Z,83.04
2022-11-17T22:08:54.335Z,82.86
2022-11-17T22:11:44.315Z,83.75
2022-11-17T22:14:16.630Z,83.48
2022-11-17T22:16:49.224Z,83.63
2022-11-17T22:19:17.719Z,84.11
2022-11-17T22:21:47.368Z,83.11
2022-11-17T22:24:14.364Z,83.39
2022-11-17T22:26:43.623Z,82.65
2022-11-17T22:29:19.098Z,82.55
2022-11-17T22:31:47.461Z,81.87
2022-11-17T22:34:15.641Z,82.55
2022-11-17T22:36:43.176Z,82.96
2022-11-17T22:39:10.179Z,81.94
2022-11-17T22:41:37.186Z,81.99
2022-11-17T22:44:04.238Z,82.09
2022-11-17T22:46:31.138Z,82.79
2022-11-17T22:48:58.119Z,82.63
2022-11-17T22:51:44.075Z,82.49
2022-11-17T22:54:11.329Z,82.44
2022-11-17T22:56:38.311Z,83.28
2022-11-17T22:59:05.268Z,82.82
2022-11-17T23:01:32.507Z,83.86
2022-11-17T23:03:59.930Z,82.43
2022-11-17T23:06:29.864Z,82.39
2022-11-17T23:08:58.404Z,83.09
2022-11-17T23:11:41.598Z,82.93
2022-11-17T23:14:12.494Z,82.97
2022-11-17T23:16:39.776Z,82.84
2022-11-17T23:19:07.123Z,82.98
2022-11-17T23:21:34.054Z,82.91
2022-11-17T23:24:01.163Z,83.56
2022-11-17T23:26:28.076Z,83.88
2022-11-17T23:28:54.989Z,83.71
2022-11-17T23:31:21.958Z,83.75
2022-11-17T23:33:49.290Z,84.37
2022-11-17T23:36:18.931Z,84.29
2022-11-17T23:38:47.315Z,83.90
2022-11-17T23:41:15.955Z,84.61
2022-11-17T23:43:43.634Z,83.91
2022-11-17T23:46:15.307Z,83.65
2022-11-17T23:48:43.603Z,83.83
2022-11-17T23:51:13.368Z,83.37
2022-11-17T23:53:40.783Z,83.21
2022-11-17T23:56:09.068Z,84.75
2022-11-17T23:58:36.409Z,84.36
